Time;durP1;ratioP1;P1;durP2;ratioP2;P2;SDS_P1;SDS_P2;PMS_P1;PMS_P2;Temp;Humidity;BMP_temperature;BMP_pressure;BME280_temperature;BME280_humidity;BME280_pressure;Samples;Min_cycle;Max_cycle;Signal;HPM_P1;HPM_P2
2022/03/15 00:00:20;;;;;;;102.72;43.75;;;;;;;-1.32;62.57;99606.20;1747623;80;21041;-56
2022/03/15 00:02:49;;;;;;;;;;;;;;;-1.35;61.65;99606.05;1746609;81;20963;-56
2022/03/15 00:05:17;;;;;;;101.05;43.87;;;;;;;-1.45;61.42;99602.72;1759793;80;20462;-56
2022/03/15 00:07:44;;;;;;;104.87;45.78;;;;;;;-1.52;63.65;99597.72;1743965;81;21365;-55
2022/03/15 00:10:12;;;;;;;105.80;44.50;;;;;;;-1.53;63.88;99599.54;1744062;82;21073;-56
2022/03/15 00:12:40;;;;;;;96.53;44.40;;;;;;;-1.56;67.15;99599.84;1759777;81;20958;-55
2022/03/15 00:15:08;;;;;;;97.45;42.88;;;;;;;-1.55;65.47;99594.86;1754895;80;21225;-55
2022/03/15 00:17:36;;;;;;;109.65;42.80;;;;;;;-1.55;63.86;99590.05;1744577;80;21360;-56
2022/03/15 00:20:05;;;;;;;92.50;38.50;;;;;;;-1.59;62.73;99595.37;1744375;82;22197;-55
2022/03/15 00:22:35;;;;;;;68.35;29.65;;;;;;;-1.71;63.33;99593.03;1744135;82;20974;-56
2022/03/15 00:25:03;;;;;;;73.75;30.70;;;;;;;-1.73;64.63;99592.84;1744130;82;21042;-55
2022/03/15 00:27:30;;;;;;;72.97;33.00;;;;;;;-1.67;64.55;99593.52;1761601;80;21065;-56
2022/03/15 00:29:57;;;;;;;89.72;37.10;;;;;;;-1.61;66.38;99590.22;1754700;80;21021;-55
2022/03/15 00:32:25;;;;;;;83.15;38.70;;;;;;;-1.55;66.37;99602.01;1744278;81;21006;-56
2022/03/15 00:34:52;;;;;;;97.37;41.90;;;;;;;-1.55;64.45;99602.84;1744273;82;20964;-55
2022/03/15 00:37:20;;;;;;;111.30;48.45;;;;;;;-1.57;65.47;99600.02;1746521;81;21450;-56
2022/03/15 00:39:46;;;;;;;116.80;48.15;;;;;;;-1.66;67.78;99593.85;1750635;81;21442;-56
2022/03/15 00:42:14;;;;;;;106.90;47.53;;;;;;;-1.72;67.79;99600.64;1743787;82;21415;-56
2022/03/15 00:44:41;;;;;;;105.72;49.48;;;;;;;-1.76;66.44;99598.48;1743914;82;20974;-56
2022/03/15 00:47:08;;;;;;;125.87;50.60;;;;;;;-1.84;67.91;99595.81;1750821;80;20978;-55
2022/03/15 00:49:35;;;;;;;112.72;50.25;;;;;;;-1.90;67.02;99593.79;1759211;80;20982;-56
2022/03/15 00:52:03;;;;;;;108.60;46.55;;;;;;;-1.93;67.76;99597.61;1745488;81;21980;-56
2022/03/15 00:54:30;;;;;;;112.47;44.98;;;;;;;-1.95;68.77;99600.93;1758344;80;21422;-55
2022/03/15 00:56:57;;;;;;;99.80;42.30;;;;;;;-1.97;69.42;99601.56;1766809;80;21043;-55
2022/03/15 00:59:24;;;;;;;92.35;39.25;;;;;;;-1.96;67.40;99594.45;1761732;80;20938;-55
2022/03/15 01:01:51;;;;;;;84.65;36.73;;;;;;;-1.99;68.53;99592.43;1747736;80;20962;-55
2022/03/15 01:04:18;;;;;;;73.78;33.10;;;;;;;-2.00;65.21;99580.14;1755848;80;21439;-56
2022/03/15 01:06:45;;;;;;;69.72;33.90;;;;;;;-2.05;64.49;99591.77;1774982;80;21481;-56
2022/03/15 01:09:12;;;;;;;74.70;31.45;;;;;;;-2.08;66.74;99589.91;1764130;80;21101;-55
2022/03/15 01:11:40;;;;;;;80.45;33.85;;;;;;;-2.17;69.47;99585.56;1748087;80;20943;-55
2022/03/15 01:14:07;;;;;;;88.95;36.33;;;;;;;-2.27;69.92;99587.84;1753685;80;21029;-55
2022/03/15 01:16:34;;;;;;;90.20;39.45;;;;;;;-2.29;69.17;99580.55;1750102;80;20962;-56
2022/03/15 01:19:01;;;;;;;85.55;38.95;;;;;;;-2.35;70.82;99576.36;1752428;80;21065;-55
2022/03/15 01:21:28;;;;;;;85.42;38.78;;;;;;;-2.43;72.14;99578.48;1751168;80;21387;-55
2022/03/15 01:23:55;;;;;;;100.70;45.80;;;;;;;-2.56;73.13;99573.62;1743920;81;20997;-56
2022/03/15 01:26:22;;;;;;;98.37;42.73;;;;;;;-2.57;72.29;99569.27;1747634;80;21018;-56
2022/03/15 01:28:49;;;;;;;97.45;43.35;;;;;;;-2.56;72.53;99572.29;1768993;80;20987;-56
2022/03/15 01:31:16;;;;;;;87.50;38.67;;;;;;;-2.59;72.59;99569.93;1757694;80;21005;-55
2022/03/15 01:33:42;;;;;;;68.17;30.88;;;;;;;-2.57;70.79;99559.98;1770174;80;21146;-55
2022/03/15 01:36:09;;;;;;;76.80;34.18;;;;;;;-2.56;69.99;99548.90;1752074;80;21439;-56
2022/03/15 01:38:36;;;;;;;76.70;33.75;;;;;;;-2.50;68.62;99552.72;1744101;82;21025;-56
2022/03/15 01:41:03;;;;;;;74.75;34.18;;;;;;;-2.48;70.46;99554.72;1744194;82;21021;-56
2022/03/15 01:43:30;;;;;;;70.80;32.05;;;;;;;-2.48;71.32;99556.04;1745514;81;21541;-56
2022/03/15 01:45:57;;;;;;;85.22;34.98;;;;;;;-2.45;70.30;99561.88;1764842;80;20974;-56
2022/03/15 01:48:24;;;;;;;84.28;37.17;;;;;;;-2.48;72.16;99556.88;1774003;80;20974;-55
2022/03/15 01:50:51;;;;;;;81.12;34.35;;;;;;;-2.48;70.96;99558.70;1752042;80;20992;-56
2022/03/15 01:53:18;;;;;;;77.92;34.75;;;;;;;-2.58;72.91;99552.18;1774652;80;21419;-56
2022/03/15 01:55:45;;;;;;;86.78;33.05;;;;;;;-2.62;73.42;99558.31;1744476;80;20979;-55
2022/03/15 01:58:12;;;;;;;72.75;32.28;;;;;;;-2.63;73.55;99563.78;1744138;81;21433;-55
2022/03/15 02:00:39;;;;;;;85.17;34.85;;;;;;;-2.63;69.29;99571.25;1744150;82;20966;-56
2022/03/15 02:03:05;;;;;;;75.35;35.25;;;;;;;-2.64;69.47;99572.24;1744067;81;21029;-55
2022/03/15 02:05:32;;;;;;;77.22;33.50;;;;;;;-2.62;72.77;99570.26;1744304;82;20989;-55
2022/03/15 02:08:12;;;;;;;71.47;33.33;;;;;;;-2.57;73.07;99563.96;1743977;81;21057;-55
2022/03/15 02:10:39;;;;;;;74.42;30.60;;;;;;;-2.54;72.73;99562.01;1748189;80;21782;-55
2022/03/15 02:13:07;;;;;;;66.82;33.45;;;;;;;-2.48;71.68;99558.70;1744006;81;21030;-55
2022/03/15 02:15:34;;;;;;;72.37;34.75;;;;;;;-2.49;71.55;99559.69;1744336;81;21027;-55
2022/03/15 02:18:01;;;;;;;64.90;26.70;;;;;;;-2.50;70.66;99556.20;1744194;81;20990;-55
2022/03/15 02:20:28;;;;;;;64.27;29.23;;;;;;;-2.51;68.51;99557.20;1744403;82;20955;-55
2022/03/15 02:22:55;;;;;;;73.00;34.23;;;;;;;-2.60;68.31;99555.50;1743996;81;21702;-55
2022/03/15 02:25:23;;;;;;;76.22;31.23;;;;;;;-2.57;68.64;99563.13;1747665;80;21552;-56
2022/03/15 02:27:52;;;;;;;54.40;28.05;;;;;;;-2.49;70.54;99559.19;1744213;82;21416;-56
2022/03/15 02:30:18;;;;;;;;;;;;;;;-2.46;71.36;99564.70;1746810;80;20958;-55
2022/03/15 02:32:47;;;;;;;55.65;21.23;;;;;;;-2.48;69.24;99566.16;1744317;82;20199;-55
2022/03/15 02:35:15;;;;;;;59.27;24.80;;;;;;;-2.56;67.79;99567.48;1744037;82;21048;-55
2022/03/15 02:37:45;;;;;;;57.27;25.95;;;;;;;-2.62;69.57;99572.08;1744017;82;21014;-55
2022/03/15 02:40:12;;;;;;;64.70;26.52;;;;;;;-2.61;69.94;99575.90;1743945;82;21019;-55
2022/03/15 02:42:39;;;;;;;61.73;29.57;;;;;;;-2.60;67.74;99580.22;1744188;82;21053;-56
2022/03/15 02:45:07;;;;;;;60.50;29.25;;;;;;;-2.65;72.68;99573.70;1762258;80;21006;-55
2022/03/15 02:47:34;;;;;;;72.30;29.77;;;;;;;-2.66;71.92;99578.67;1774079;80;21340;-55
2022/03/15 02:50:01;;;;;;;62.78;28.27;;;;;;;-2.68;72.73;99572.70;1753305;80;21485;-55
2022/03/15 02:52:28;;;;;;;58.68;26.75;;;;;;;-2.68;71.32;99576.19;1748227;80;20970;-55
2022/03/15 02:54:58;;;;;;;62.67;30.00;;;;;;;-2.71;71.37;99569.05;1756486;80;21092;-55
2022/03/15 02:57:27;;;;;;;75.12;32.95;;;;;;;-2.73;72.06;99577.17;1744098;81;20923;-55
2022/03/15 02:59:56;;;;;;;67.97;28.70;;;;;;;-2.74;71.80;99577.30;1744186;82;21322;-55
2022/03/15 03:02:23;;;;;;;58.95;28.10;;;;;;;-2.74;70.35;99577.30;1744409;81;21019;-55
2022/03/15 03:04:50;;;;;;;63.98;29.35;;;;;;;-2.78;72.42;99582.10;1744093;82;20943;-55
2022/03/15 03:07:19;;;;;;;53.70;25.00;;;;;;;-2.77;71.37;99581.11;1744243;81;20987;-55
2022/03/15 03:09:47;;;;;;;43.78;21.33;;;;;;;-2.80;73.61;99580.11;1744294;82;21050;-55
2022/03/15 03:12:15;;;;;;;57.05;24.95;;;;;;;-2.78;73.61;99568.83;1744168;82;21423;-55
2022/03/15 03:14:47;;;;;;;54.85;25.60;;;;;;;-2.78;72.94;99570.16;1759802;80;21036;-55
2022/03/15 03:17:12;;;;;;;53.85;22.55;;;;;;;-2.80;72.07;99576.63;1748152;80;21003;-55
2022/03/15 03:19:39;;;;;;;47.78;23.65;;;;;;;-2.88;70.98;99583.53;1744017;82;20986;-55
2022/03/15 03:22:06;;;;;;;52.45;24.57;;;;;;;-2.93;70.29;99577.85;1768321;80;20990;-55
2022/03/15 03:24:34;;;;;;;43.00;23.55;;;;;;;-2.91;71.58;99583.00;1774786;80;21681;-55
2022/03/15 03:27:01;;;;;;;48.92;23.10;;;;;;;-2.88;74.22;99582.70;1751665;80;21477;-56
2022/03/15 03:29:29;;;;;;;56.70;24.75;;;;;;;-2.85;74.26;99591.17;1758214;80;21021;-55
2022/03/15 03:31:56;;;;;;;53.25;23.83;;;;;;;-2.88;74.58;99590.17;1766544;80;21717;-55
2022/03/15 03:34:23;;;;;;;61.18;27.20;;;;;;;-2.88;70.87;99600.78;1761679;80;20974;-55
2022/03/15 03:36:50;;;;;;;53.25;25.92;;;;;;;-2.92;72.81;99591.45;1748083;80;21167;-55
2022/03/15 03:39:17;;;;;;;54.48;25.80;;;;;;;-2.96;73.25;99587.45;1744198;82;21431;-55
2022/03/15 03:41:44;;;;;;;51.13;23.90;;;;;;;-2.90;71.01;99590.83;1743989;81;21500;-55
2022/03/15 03:44:11;;;;;;;57.10;25.85;;;;;;;-2.87;71.69;99594.98;1754396;80;21040;-56
2022/03/15 03:46:37;;;;;;;56.30;24.82;;;;;;;-2.86;70.06;99592.66;1748905;80;20982;-55
2022/03/15 03:49:04;;;;;;;49.58;23.92;;;;;;;-2.90;72.76;99590.83;1744112;82;21007;-55
2022/03/15 03:51:31;;;;;;;59.42;25.17;;;;;;;-2.87;72.51;99592.33;1760765;80;20938;-56
2022/03/15 03:53:58;;;;;;;50.48;25.57;;;;;;;-2.88;72.86;99595.97;1766896;80;21031;-56
2022/03/15 03:56:25;;;;;;;52.25;27.42;;;;;;;-2.87;72.36;99594.48;1744152;82;21412;-55
2022/03/15 03:58:52;;;;;;;43.33;21.95;;;;;;;-2.92;73.08;99595.43;1743757;82;21081;-55
2022/03/15 04:01:19;;;;;;;53.65;23.73;;;;;;;-2.95;69.76;99591.77;1744014;82;21399;-55
2022/03/15 04:03:46;;;;;;;51.35;22.32;;;;;;;-3.04;70.97;99585.23;1743879;81;21081;-54
2022/03/15 04:06:13;;;;;;;36.80;18.70;;;;;;;-3.06;73.52;99581.42;1744143;82;21429;-55
2022/03/15 04:08:41;;;;;;;51.28;23.27;;;;;;;-3.04;74.44;99584.75;1743961;81;20947;-55
2022/03/15 04:11:10;;;;;;;51.88;26.50;;;;;;;-3.01;74.92;99588.90;1744281;82;21010;-55
2022/03/15 04:13:40;;;;;;;43.42;20.05;;;;;;;-3.04;75.28;99586.07;1743926;81;21007;-55
2022/03/15 04:16:06;;;;;;;50.05;20.90;;;;;;;-3.03;72.97;99585.08;1743342;82;21451;-55
2022/03/15 04:18:33;;;;;;;51.33;23.10;;;;;;;-3.04;70.95;99586.56;1743986;81;21388;-55
2022/03/15 04:21:00;;;;;;;47.05;19.02;;;;;;;-3.08;74.44;99594.47;1744110;82;20974;-55
2022/03/15 04:23:27;;;;;;;38.10;17.50;;;;;;;-3.03;72.49;99585.58;1744040;81;21021;-56
2022/03/15 04:25:54;;;;;;;43.10;20.15;;;;;;;-2.98;71.16;99588.61;1752735;80;21351;-55
2022/03/15 04:28:21;;;;;;;34.73;19.57;;;;;;;-2.97;72.09;99585.80;1745837;80;20973;-55
2022/03/15 04:30:48;;;;;;;41.00;20.90;;;;;;;-2.95;73.58;99579.83;1743755;82;20967;-56
2022/03/15 04:33:15;;;;;;;44.53;21.40;;;;;;;-2.92;73.56;99579.52;1744335;81;21022;-55
2022/03/15 04:35:42;;;;;;;43.90;19.92;;;;;;;-2.89;73.12;99581.87;1743874;82;21025;-56
2022/03/15 04:38:09;;;;;;;51.48;23.00;;;;;;;-2.84;72.01;99584.88;1744303;82;21356;-55
2022/03/15 04:40:36;;;;;;;47.55;24.45;;;;;;;-2.84;74.32;99574.75;1743886;82;21407;-55
2022/03/15 04:43:03;;;;;;;45.12;22.80;;;;;;;-2.85;73.73;99579.23;1744371;81;21010;-55
2022/03/15 04:45:30;;;;;;;54.38;26.15;;;;;;;-2.87;73.23;99589.67;1757220;81;20971;-54
2022/03/15 04:47:57;;;;;;;63.05;27.77;;;;;;;-2.90;72.39;99584.19;1744235;81;21494;-55
2022/03/15 04:50:24;;;;;;;67.00;31.97;;;;;;;-2.92;71.87;99582.66;1759683;80;21006;-55
2022/03/15 04:52:51;;;;;;;61.37;27.75;;;;;;;-2.97;71.48;99580.48;1744157;82;20999;-55
2022/03/15 04:55:17;;;;;;;63.10;27.00;;;;;;;-3.00;70.49;99581.27;1744154;82;21064;-55
2022/03/15 04:57:44;;;;;;;64.97;29.82;;;;;;;-3.06;70.91;99578.77;1744123;81;21463;-55
2022/03/15 05:00:13;;;;;;;71.67;32.55;;;;;;;-3.02;71.32;99583.26;1743927;82;21518;-55
2022/03/15 05:02:41;;;;;;;67.12;32.73;;;;;;;-3.01;74.49;99581.77;1744491;82;21746;-55
2022/03/15 05:05:08;;;;;;;62.27;30.57;;;;;;;-3.01;72.90;99585.75;1743955;81;20967;-54
2022/03/15 05:07:35;;;;;;;53.85;26.02;;;;;;;-2.98;73.64;99575.34;1774236;80;20966;-55
2022/03/15 05:12:50;;;;;;;54.03;25.80;;;;;;;-3.04;70.89;99578.61;1774699;80;21446;-55
2022/03/15 05:15:17;;;;;;;61.70;27.23;;;;;;;-3.09;71.50;99569.77;1769957;80;21444;-55
2022/03/15 05:17:44;;;;;;;48.70;26.45;;;;;;;-3.07;72.57;99573.13;1744115;81;21279;-55
2022/03/15 05:20:12;;;;;;;53.55;26.12;;;;;;;-3.07;75.30;99566.99;1743811;81;21438;-55
2022/03/15 05:22:39;;;;;;;53.98;26.37;;;;;;;-3.00;71.89;99578.12;1744161;82;21009;-55
2022/03/15 05:25:07;;;;;;;56.80;28.07;;;;;;;-3.00;71.54;99576.80;1742904;81;21066;-55
2022/03/15 05:27:34;;;;;;;53.65;28.75;;;;;;;-3.02;75.47;99588.06;1744343;81;21771;-54
2022/03/15 05:30:02;;;;;;;58.45;29.20;;;;;;;-2.99;75.70;99587.78;1738998;80;21006;-55
2022/03/15 05:32:29;;;;;;;64.90;29.07;;;;;;;-2.99;75.90;99586.91;1774927;80;20998;-54
2022/03/15 05:34:56;;;;;;;62.85;28.50;;;;;;;-2.98;75.70;99585.45;1754759;80;21030;-55
2022/03/15 05:37:23;;;;;;;58.48;26.62;;;;;;;-2.90;74.09;99582.03;1771838;80;21490;-54
2022/03/15 05:39:50;;;;;;;58.40;25.95;;;;;;;-2.90;75.84;99576.73;1759121;80;21036;-55
2022/03/15 05:42:18;;;;;;;56.13;26.23;;;;;;;-2.81;74.42;99577.12;1770782;80;20989;-54
2022/03/15 05:44:45;;;;;;;51.90;26.07;;;;;;;-2.75;76.36;99572.48;1757575;80;20977;-56
2022/03/15 05:47:12;;;;;;;63.58;28.62;;;;;;;-2.64;75.59;99573.57;1749878;80;20970;-55
2022/03/15 05:49:39;;;;;;;55.67;26.33;;;;;;;-2.50;75.31;99573.95;1754108;80;21467;-55
2022/03/15 05:52:07;;;;;;;55.48;26.20;;;;;;;-2.40;74.20;99578.15;1749223;80;20981;-55
2022/03/15 05:54:35;;;;;;;57.40;23.55;;;;;;;-2.30;73.29;99581.54;1755129;80;20972;-55
2022/03/15 05:57:03;;;;;;;61.85;26.00;;;;;;;-2.16;73.41;99573.45;1744180;81;21038;-53
2022/03/15 05:59:30;;;;;;;65.62;29.18;;;;;;;-2.09;72.44;99578.95;1756789;81;21451;-55
2022/03/15 06:01:57;;;;;;;62.93;30.90;;;;;;;-2.08;74.57;99572.64;1740225;81;21085;-55
2022/03/15 06:04:25;;;;;;;68.12;31.30;;;;;;;-2.00;72.92;99588.11;1739685;82;21030;-55
2022/03/15 06:06:57;;;;;;;73.33;33.45;;;;;;;-1.90;71.98;99587.14;1724344;82;20985;-55
2022/03/15 06:09:24;;;;;;;80.70;36.33;;;;;;;-1.86;72.00;99575.22;1747245;82;21177;-55
2022/03/15 06:11:54;;;;;;;77.12;33.95;;;;;;;-1.78;72.42;99569.92;1741290;82;21053;-55
2022/03/15 06:14:22;;;;;;;84.62;37.35;;;;;;;-1.72;71.45;99574.06;1737968;80;22003;-55
2022/03/15 06:16:48;;;;;;;82.10;36.93;;;;;;;-1.62;71.89;99561.12;1743743;81;21510;-55
2022/03/15 06:19:15;;;;;;;70.45;31.95;;;;;;;-1.49;72.24;99569.45;1744230;82;20957;-54
2022/03/15 06:21:42;;;;;;;66.12;32.28;;;;;;;-1.37;72.66;99569.95;1748094;80;20931;-55
2022/03/15 06:24:09;;;;;;;65.05;30.55;;;;;;;-1.26;71.96;99569.14;1741786;80;21022;-56
2022/03/15 06:26:38;;;;;;;72.08;35.88;;;;;;;-1.17;72.30;99564.16;1755886;80;21462;-55
2022/03/15 06:29:05;;;;;;;74.82;34.20;;;;;;;-1.07;71.68;99563.98;1764526;80;20993;-55
2022/03/15 06:31:33;;;;;;;67.55;28.35;;;;;;;-0.96;71.59;99557.47;1752036;80;21045;-55
2022/03/15 06:34:00;;;;;;;62.20;30.77;;;;;;;-0.87;71.27;99561.28;1744192;81;21033;-55
2022/03/15 06:36:28;;;;;;;71.00;31.57;;;;;;;-0.71;71.37;99559.09;1743846;81;21362;-55
2022/03/15 06:38:55;;;;;;;69.07;35.90;;;;;;;-0.57;70.65;99554.41;1744301;81;21021;-55
2022/03/15 06:41:22;;;;;;;101.10;43.80;;;;;;;-0.41;70.91;99554.86;1712272;82;22185;-56
2022/03/15 06:43:49;;;;;;;86.40;41.40;;;;;;;-0.27;70.81;99549.80;1744285;82;21021;-56
2022/03/15 06:46:16;;;;;;;88.87;40.12;;;;;;;-0.13;70.56;99550.41;1751499;80;21033;-55
2022/03/15 06:48:43;;;;;;;76.67;36.83;;;;;;;-0.01;70.40;99561.83;1743834;81;20958;-55
2022/03/15 06:51:11;;;;;;;78.70;38.80;;;;;;;0.15;69.93;99561.42;1743928;81;21403;-56
2022/03/15 06:53:38;;;;;;;79.67;38.98;;;;;;;0.20;69.79;99560.41;1743980;81;21074;-56
2022/03/15 06:56:04;;;;;;;86.53;40.48;;;;;;;0.30;69.75;99554.34;1743892;82;21013;-56
2022/03/15 06:58:31;;;;;;;110.15;49.70;;;;;;;0.49;69.22;99559.70;1745954;81;21048;-56
2022/03/15 07:00:59;;;;;;;95.03;44.93;;;;;;;0.66;69.16;99561.25;1755067;81;21026;-56
2022/03/15 07:03:26;;;;;;;119.13;45.45;;;;;;;0.84;68.76;99563.09;1743949;81;21400;-56
2022/03/15 07:05:53;;;;;;;127.25;51.75;;;;;;;1.08;68.01;99558.56;1743928;82;21330;-56
2022/03/15 07:08:20;;;;;;;101.58;43.17;;;;;;;1.48;66.94;99548.48;1744123;81;20995;-57
2022/03/15 07:10:47;;;;;;;68.97;32.33;;;;;;;2.00;66.79;99544.84;1747023;80;21048;-56
2022/03/15 07:13:14;;;;;;;51.25;26.57;;;;;;;2.21;65.42;99552.39;1743979;82;20954;-57
2022/03/15 07:15:41;;;;;;;50.20;25.70;;;;;;;3.11;63.79;99542.45;1743588;82;20966;-57
2022/03/15 07:18:08;;;;;;;44.53;26.33;;;;;;;4.16;65.32;99549.94;1743756;81;21436;-57
2022/03/15 07:20:35;;;;;;;46.65;26.68;;;;;;;5.07;62.97;99543.59;1743829;82;21423;-57
2022/03/15 07:23:02;;;;;;;104.15;67.22;;;;;;;5.79;56.62;99546.67;1744057;81;21423;-56
2022/03/15 07:25:29;;;;;;;52.23;36.23;;;;;;;6.77;55.51;99539.19;1743543;80;21092;-57
2022/03/15 07:28:00;;;;;;;50.05;25.30;;;;;;;7.66;56.48;99539.03;1748236;80;20977;-56
2022/03/15 07:30:25;;;;;;;54.95;31.52;;;;;;;8.32;57.28;99532.84;1760204;80;21076;-57
2022/03/15 07:32:52;;;;;;;40.78;27.10;;;;;;;8.52;48.00;99529.36;1742708;80;21051;-57
2022/03/15 07:35:19;;;;;;;47.00;24.23;;;;;;;9.16;46.91;99525.06;1748160;80;21009;-57
2022/03/15 07:37:58;;;;;;;37.67;23.47;;;;;;;9.90;51.06;99519.94;1754200;80;21128;-56
2022/03/15 07:40:27;;;;;;;50.98;25.40;;;;;;;10.05;41.29;99523.50;1752326;80;21412;-57
2022/03/15 07:42:55;;;;;;;48.75;26.57;;;;;;;10.62;42.51;99527.63;1741823;80;21637;-57
2022/03/15 07:45:23;;;;;;;45.80;26.00;;;;;;;11.03;39.55;99529.16;1749742;80;37338;-57
2022/03/15 07:47:50;;;;;;;49.20;24.98;;;;;;;11.64;43.93;99519.23;1741789;80;20978;-57
2022/03/15 07:50:17;;;;;;;31.00;20.95;;;;;;;11.98;39.45;99516.46;1741640;82;21515;-57
2022/03/15 07:52:46;;;;;;;31.37;20.32;;;;;;;12.21;37.08;99516.18;1742098;81;21474;-57
2022/03/15 07:55:13;;;;;;;94.80;29.60;;;;;;;12.77;42.02;99516.79;1749993;80;21061;-57
2022/03/15 07:57:40;;;;;;;35.85;24.52;;;;;;;13.19;41.93;99510.11;1741777;81;21008;-57
2022/03/15 08:00:07;;;;;;;32.60;20.92;;;;;;;13.52;38.00;99495.37;1741880;81;21025;-58
2022/03/15 08:02:34;;;;;;;31.33;21.07;;;;;;;14.03;38.29;99491.54;1741753;80;21029;-57
2022/03/15 08:05:01;;;;;;;35.38;20.25;;;;;;;14.40;35.65;99487.28;1740831;80;21730;-57
2022/03/15 08:07:28;;;;;;;33.20;19.92;;;;;;;14.59;35.88;99486.80;1757266;80;21087;-57
2022/03/15 08:09:55;;;;;;;46.13;30.72;;;;;;;15.09;36.92;99491.48;1761694;80;21071;-58
2022/03/15 08:12:22;;;;;;;33.88;19.17;;;;;;;15.23;33.83;99490.39;1738645;81;21064;-58
2022/03/15 08:14:49;;;;;;;55.25;36.10;;;;;;;15.58;34.11;99484.60;1757293;80;21045;-58
2022/03/15 08:17:16;;;;;;;37.33;25.40;;;;;;;15.90;33.94;99477.44;1767712;80;21112;-58
2022/03/15 08:19:43;;;;;;;93.70;58.38;;;;;;;16.50;34.51;99479.60;1750907;80;21124;-57
2022/03/15 08:22:10;;;;;;;31.00;20.15;;;;;;;16.74;33.04;99469.59;1741699;81;21006;-58
2022/03/15 08:24:37;;;;;;;28.87;19.55;;;;;;;16.67;29.62;99468.27;1753696;80;21060;-57
2022/03/15 08:27:03;;;;;;;44.65;19.30;;;;;;;17.20;30.67;99459.09;1760881;80;20982;-57
2022/03/15 08:29:31;;;;;;;36.65;21.45;;;;;;;17.72;29.57;99451.19;1757773;80;21405;-58
2022/03/15 08:31:58;;;;;;;20.25;14.70;;;;;;;17.88;29.02;99451.27;1738108;80;21490;-57
2022/03/15 08:34:24;;;;;;;37.50;22.80;;;;;;;18.16;28.29;99444.59;1739571;81;21018;-58
2022/03/15 08:36:53;;;;;;;34.03;24.67;;;;;;;18.49;28.78;99448.25;1745130;80;21076;-57
2022/03/15 08:39:22;;;;;;;23.83;18.17;;;;;;;18.84;28.83;99442.80;1742010;80;22284;-58
2022/03/15 08:41:51;;;;;;;32.60;21.30;;;;;;;19.25;28.60;99440.73;1751146;80;21037;-57
2022/03/15 08:44:18;;;;;;;;;;;;;;;20.02;27.64;99436.77;1763170;80;21121;-58
2022/03/15 08:46:47;;;;;;;29.33;18.23;;;;;;;20.63;24.54;99434.04;1748084;80;20214;-58
2022/03/15 08:49:15;;;;;;;;;;;;;;;21.47;26.92;99430.55;1764531;80;21087;-58
2022/03/15 08:51:42;;;;;;;36.48;20.40;;;;;;;21.99;23.97;99423.02;1748605;80;20764;-58
2022/03/15 08:54:09;;;;;;;16.40;12.05;;;;;;;22.32;26.08;99418.73;1743105;80;21031;-58
2022/03/15 08:56:40;;;;;;;19.65;13.40;;;;;;;22.65;24.14;99417.68;1748517;80;21123;-58
2022/03/15 08:59:05;;;;;;;30.92;17.45;;;;;;;22.25;24.50;99412.87;1748160;80;22423;-58
2022/03/15 09:01:32;;;;;;;32.17;19.27;;;;;;;22.63;24.03;99414.98;1748657;80;21066;-59
2022/03/15 09:03:59;;;;;;;29.00;15.05;;;;;;;22.98;23.99;99415.78;1746063;80;21061;-58
2022/03/15 09:06:26;;;;;;;57.20;21.17;;;;;;;23.45;23.15;99408.34;1740986;81;21128;-58
2022/03/15 09:08:53;;;;;;;20.17;12.45;;;;;;;23.41;22.96;99407.94;1741472;81;21600;-58
2022/03/15 09:11:20;;;;;;;20.02;12.85;;;;;;;21.62;23.38;99409.98;1741635;80;21051;-57
2022/03/15 09:13:47;;;;;;;30.50;18.02;;;;;;;20.19;24.82;99405.30;1742994;80;21132;-57
2022/03/15 09:16:14;;;;;;;152.35;94.97;;;;;;;19.30;24.60;99396.09;1756786;80;20998;-57
2022/03/15 09:18:41;;;;;;;24.67;15.58;;;;;;;18.20;25.29;99392.98;1752543;80;21435;-57
2022/03/15 09:21:09;;;;;;;25.15;15.25;;;;;;;17.17;25.29;99382.96;1748707;80;21018;-57
2022/03/15 09:23:36;;;;;;;21.20;13.38;;;;;;;16.43;26.11;99388.27;1746074;81;21176;-57
2022/03/15 09:26:03;;;;;;;17.20;11.57;;;;;;;15.72;26.89;99381.31;1741468;80;21081;-57
2022/03/15 09:28:30;;;;;;;20.57;15.40;;;;;;;15.37;27.41;99381.39;1741173;81;21070;-57
2022/03/15 09:30:57;;;;;;;19.07;12.35;;;;;;;15.17;27.97;99368.63;1738617;80;21068;-57
2022/03/15 09:33:24;;;;;;;19.12;11.95;;;;;;;14.85;28.45;99362.95;1735302;80;21757;-57
2022/03/15 09:35:51;;;;;;;27.27;18.12;;;;;;;14.63;28.83;99358.34;1745361;80;21105;-58
2022/03/15 09:38:20;;;;;;;20.37;14.30;;;;;;;14.50;29.04;99365.15;1760241;80;21092;-57
2022/03/15 09:40:51;;;;;;;16.35;10.38;;;;;;;14.38;29.48;99349.59;1747271;80;21053;-57
2022/03/15 09:43:21;;;;;;;18.23;10.85;;;;;;;14.32;29.82;99343.30;1741998;82;21030;-56
2022/03/15 09:45:49;;;;;;;17.10;12.37;;;;;;;14.38;29.71;99350.95;1748950;80;21021;-57
2022/03/15 09:48:20;;;;;;;14.23;9.90;;;;;;;14.27;30.04;99347.41;1771734;80;21010;-57
2022/03/15 09:50:50;;;;;;;14.73;9.35;;;;;;;14.20;30.08;99341.40;1742878;80;21077;-57
2022/03/15 09:53:18;;;;;;;18.05;11.20;;;;;;;14.13;30.23;99337.30;1763354;80;21025;-56
2022/03/15 09:55:46;;;;;;;18.50;11.53;;;;;;;14.06;30.55;99335.64;1745005;80;21646;-57
2022/03/15 09:58:14;;;;;;;18.30;9.75;;;;;;;14.07;30.54;99333.73;1741791;80;21572;-57
2022/03/15 10:00:41;;;;;;;17.20;10.47;;;;;;;14.13;30.67;99327.21;1743255;80;21542;-57
2022/03/15 10:03:08;;;;;;;14.33;10.55;;;;;;;14.08;30.83;99334.00;1761716;80;21047;-56
2022/03/15 10:05:36;;;;;;;17.85;11.78;;;;;;;13.99;30.45;99329.63;1752012;80;21061;-57
2022/03/15 10:08:03;;;;;;;16.00;9.68;;;;;;;14.09;31.04;99322.02;1741997;81;21027;-57
2022/03/15 10:10:31;;;;;;;16.35;10.30;;;;;;;14.14;31.08;99320.66;1746545;80;21486;-57
2022/03/15 10:12:57;;;;;;;19.27;10.30;;;;;;;14.30;30.53;99306.50;1706874;80;21060;-57
2022/03/15 10:15:25;;;;;;;17.40;9.90;;;;;;;14.37;30.96;99301.59;1748275;80;21092;-57
2022/03/15 10:17:55;;;;;;;16.77;10.30;;;;;;;14.48;31.26;99300.52;1748019;80;21029;-57
2022/03/15 10:20:29;;;;;;;11.45;8.18;;;;;;;14.58;31.14;99295.05;1752721;80;21033;-56
2022/03/15 10:22:57;;;;;;;20.52;10.00;;;;;;;14.60;30.79;99291.50;1741515;81;21404;-57
2022/03/15 10:25:25;;;;;;;11.03;8.13;;;;;;;14.63;30.60;99284.14;1753982;80;21023;-57
2022/03/15 10:27:58;;;;;;;15.27;10.07;;;;;;;14.56;30.53;99279.52;1750161;80;21040;-57
2022/03/15 10:30:27;;;;;;;18.20;10.40;;;;;;;14.66;30.83;99282.77;1742538;80;21156;-57
2022/03/15 10:32:54;;;;;;;;;;;;;;;14.72;29.97;99274.86;1744797;80;21450;-57
2022/03/15 10:35:29;;;;;;;11.15;7.08;;;;;;;14.66;30.72;99278.13;1751020;80;21734;-57
2022/03/15 10:37:56;;;;;;;13.88;9.20;;;;;;;14.81;30.00;99266.38;1750117;80;21004;-57
2022/03/15 10:40:36;;;;;;;11.40;8.28;;;;;;;14.53;30.37;99266.98;1750657;80;21069;-57
2022/03/15 10:43:08;;;;;;;14.45;8.15;;;;;;;14.60;30.96;99262.86;1742021;81;20974;-56
2022/03/15 10:45:37;;;;;;;15.53;8.63;;;;;;;14.68;30.99;99251.93;1741423;80;21080;-57
2022/03/15 10:48:30;;;;;;;12.45;8.43;;;;;;;14.68;30.94;99245.92;1757747;80;21033;-57
2022/03/15 10:51:03;;;;;;;11.38;7.75;;;;;;;14.76;31.33;99247.27;1749259;80;21097;-57
2022/03/15 10:53:48;;;;;;;10.85;8.03;;;;;;;14.70;31.05;99242.10;1733091;80;21119;-57
2022/03/15 10:56:18;;;;;;;11.25;8.35;;;;;;;14.74;31.21;99243.20;1749214;80;21375;-57
2022/03/15 10:59:00;;;;;;;14.45;9.30;;;;;;;14.53;30.62;99232.90;1755367;80;21028;-57
2022/03/15 11:01:35;;;;;;;12.70;7.30;;;;;;;14.66;31.11;99233.67;1750915;80;21200;-57
2022/03/15 11:04:06;;;;;;;10.53;6.90;;;;;;;14.84;30.13;99231.70;1750507;80;21013;-57
2022/03/15 11:06:40;;;;;;;12.07;7.70;;;;;;;14.81;29.91;99222.72;1745416;80;21565;-57
2022/03/15 11:09:24;;;;;;;15.68;8.28;;;;;;;14.69;30.54;99219.46;1741075;80;20979;-57
2022/03/15 11:12:06;;;;;;;10.28;6.65;;;;;;;14.68;30.65;99214.55;1749455;80;20986;-56
2022/03/15 11:14:44;;;;;;;14.45;9.70;;;;;;;14.67;31.07;99205.29;1756992;80;21088;-57
2022/03/15 11:17:12;;;;;;;14.10;9.35;;;;;;;14.55;30.72;99199.34;1759794;80;21049;-56
2022/03/15 11:19:44;;;;;;;9.68;7.92;;;;;;;14.56;31.17;99194.97;1757520;80;21084;-57
2022/03/15 11:22:17;;;;;;;11.12;7.65;;;;;;;14.59;31.10;99185.41;1735803;80;20965;-57
2022/03/15 11:25:07;;;;;;;10.68;8.23;;;;;;;14.60;31.02;99183.75;1751029;80;21176;-58